sensor_id;sensor_type;location;lat;lon;timestamp;P1;durP1;ratioP1;P2;durP2;ratioP2
59300;SDS011;45073;52.740;6.784;2024-01-30T00:01:25;13.45;;;6.85;;
59300;SDS011;45073;52.740;6.784;2024-01-30T00:03:50;14.02;;;7.78;;
59300;SDS011;45073;52.740;6.784;2024-01-30T00:06:19;14.73;;;7.00;;
59300;SDS011;45073;52.740;6.784;2024-01-30T00:08:49;11.48;;;6.07;;
59300;SDS011;45073;52.740;6.784;2024-01-30T00:11:15;15.15;;;7.35;;
59300;SDS011;45073;52.740;6.784;2024-01-30T00:13:41;12.85;;;6.63;;
59300;SDS011;45073;52.740;6.784;2024-01-30T00:16:07;12.57;;;7.20;;
59300;SDS011;45073;52.740;6.784;2024-01-30T00:18:34;15.43;;;6.90;;
59300;SDS011;45073;52.740;6.784;2024-01-30T00:20:59;13.40;;;7.22;;
59300;SDS011;45073;52.740;6.784;2024-01-30T00:23:25;13.35;;;6.88;;
59300;SDS011;45073;52.740;6.784;2024-01-30T00:25:51;16.80;;;6.78;;
59300;SDS011;45073;52.740;6.784;2024-01-30T00:28:16;13.75;;;7.55;;
59300;SDS011;45073;52.740;6.784;2024-01-30T00:30:42;16.38;;;6.50;;
59300;SDS011;45073;52.740;6.784;2024-01-30T00:33:08;15.50;;;7.03;;
59300;SDS011;45073;52.740;6.784;2024-01-30T00:35:34;13.15;;;6.82;;
59300;SDS011;45073;52.740;6.784;2024-01-30T00:38:00;14.48;;;7.25;;
59300;SDS011;45073;52.740;6.784;2024-01-30T00:40:26;18.20;;;6.85;;
59300;SDS011;45073;52.740;6.784;2024-01-30T00:42:51;15.13;;;7.93;;
59300;SDS011;45073;52.740;6.784;2024-01-30T00:45:17;13.43;;;6.95;;
59300;SDS011;45073;52.740;6.784;2024-01-30T00:47:43;11.48;;;6.57;;
59300;SDS011;45073;52.740;6.784;2024-01-30T00:50:09;12.52;;;6.70;;
59300;SDS011;45073;52.740;6.784;2024-01-30T00:52:36;15.57;;;6.95;;
59300;SDS011;45073;52.740;6.784;2024-01-30T00:55:02;14.13;;;6.13;;
59300;SDS011;45073;52.740;6.784;2024-01-30T00:57:28;13.88;;;6.88;;
59300;SDS011;45073;52.740;6.784;2024-01-30T00:59:54;16.70;;;8.23;;
59300;SDS011;45073;52.740;6.784;2024-01-30T01:02:22;14.68;;;7.10;;
59300;SDS011;45073;52.740;6.784;2024-01-30T01:04:48;13.63;;;6.15;;
59300;SDS011;45073;52.740;6.784;2024-01-30T01:07:15;12.82;;;6.35;;
59300;SDS011;45073;52.740;6.784;2024-01-30T01:09:40;13.10;;;6.95;;
59300;SDS011;45073;52.740;6.784;2024-01-30T01:12:06;15.52;;;7.03;;
59300;SDS011;45073;52.740;6.784;2024-01-30T01:14:32;12.80;;;6.85;;
59300;SDS011;45073;52.740;6.784;2024-01-30T01:16:57;14.77;;;6.97;;
59300;SDS011;45073;52.740;6.784;2024-01-30T01:19:23;11.52;;;6.70;;
59300;SDS011;45073;52.740;6.784;2024-01-30T01:21:48;13.95;;;5.68;;
59300;SDS011;45073;52.740;6.784;2024-01-30T01:24:14;10.95;;;5.65;;
59300;SDS011;45073;52.740;6.784;2024-01-30T01:26:40;14.77;;;7.40;;
59300;SDS011;45073;52.740;6.784;2024-01-30T01:29:08;13.60;;;7.38;;
59300;SDS011;45073;52.740;6.784;2024-01-30T01:31:36;15.23;;;7.40;;
59300;SDS011;45073;52.740;6.784;2024-01-30T01:34:09;12.88;;;7.03;;
59300;SDS011;45073;52.740;6.784;2024-01-30T01:36:37;15.73;;;7.38;;
59300;SDS011;45073;52.740;6.784;2024-01-30T01:39:04;15.32;;;7.03;;
59300;SDS011;45073;52.740;6.784;2024-01-30T01:41:30;12.90;;;6.28;;
59300;SDS011;45073;52.740;6.784;2024-01-30T01:43:59;14.45;;;6.65;;
59300;SDS011;45073;52.740;6.784;2024-01-30T01:46:30;15.35;;;7.05;;
59300;SDS011;45073;52.740;6.784;2024-01-30T01:48:58;11.85;;;6.30;;
59300;SDS011;45073;52.740;6.784;2024-01-30T01:51:29;12.52;;;6.22;;
59300;SDS011;45073;52.740;6.784;2024-01-30T01:53:58;13.02;;;6.63;;
59300;SDS011;45073;52.740;6.784;2024-01-30T01:56:27;14.27;;;6.82;;
59300;SDS011;45073;52.740;6.784;2024-01-30T01:58:54;11.43;;;5.43;;
59300;SDS011;45073;52.740;6.784;2024-01-30T02:01:20;15.45;;;6.25;;
59300;SDS011;45073;52.740;6.784;2024-01-30T02:03:46;12.75;;;6.82;;
59300;SDS011;45073;52.740;6.784;2024-01-30T02:06:13;13.40;;;6.32;;
59300;SDS011;45073;52.740;6.784;2024-01-30T02:08:39;13.27;;;6.68;;
59300;SDS011;45073;52.740;6.784;2024-01-30T02:11:06;18.63;;;6.68;;
59300;SDS011;45073;52.740;6.784;2024-01-30T02:13:31;13.23;;;6.63;;
59300;SDS011;45073;52.740;6.784;2024-01-30T02:15:57;11.55;;;7.00;;
59300;SDS011;45073;52.740;6.784;2024-01-30T02:18:23;13.20;;;6.43;;
59300;SDS011;45073;52.740;6.784;2024-01-30T02:20:48;14.75;;;6.93;;
59300;SDS011;45073;52.740;6.784;2024-01-30T02:23:16;14.23;;;6.80;;
59300;SDS011;45073;52.740;6.784;2024-01-30T02:25:42;13.73;;;6.55;;
59300;SDS011;45073;52.740;6.784;2024-01-30T02:28:14;12.38;;;6.15;;
59300;SDS011;45073;52.740;6.784;2024-01-30T02:30:40;12.38;;;6.20;;
59300;SDS011;45073;52.740;6.784;2024-01-30T02:33:07;15.57;;;6.55;;
59300;SDS011;45073;52.740;6.784;2024-01-30T02:35:33;14.68;;;6.88;;
59300;SDS011;45073;52.740;6.784;2024-01-30T02:37:59;14.50;;;6.95;;
59300;SDS011;45073;52.740;6.784;2024-01-30T02:40:25;12.77;;;7.05;;
59300;SDS011;45073;52.740;6.784;2024-01-30T02:42:50;14.20;;;6.78;;
59300;SDS011;45073;52.740;6.784;2024-01-30T02:45:16;13.68;;;6.38;;
59300;SDS011;45073;52.740;6.784;2024-01-30T02:47:42;11.45;;;6.53;;
59300;SDS011;45073;52.740;6.784;2024-01-30T02:50:07;17.08;;;7.10;;
59300;SDS011;45073;52.740;6.784;2024-01-30T02:52:33;12.38;;;7.07;;
59300;SDS011;45073;52.740;6.784;2024-01-30T02:54:59;13.10;;;6.55;;
59300;SDS011;45073;52.740;6.784;2024-01-30T02:57:25;11.70;;;5.85;;
59300;SDS011;45073;52.740;6.784;2024-01-30T02:59:50;12.02;;;6.32;;
59300;SDS011;45073;52.740;6.784;2024-01-30T03:02:16;13.07;;;6.88;;
59300;SDS011;45073;52.740;6.784;2024-01-30T03:04:42;12.90;;;5.85;;
59300;SDS011;45073;52.740;6.784;2024-01-30T03:07:08;12.07;;;5.85;;
59300;SDS011;45073;52.740;6.784;2024-01-30T03:09:34;12.82;;;6.55;;
59300;SDS011;45073;52.740;6.784;2024-01-30T03:12:00;15.02;;;7.07;;
59300;SDS011;45073;52.740;6.784;2024-01-30T03:14:26;17.23;;;6.03;;
59300;SDS011;45073;52.740;6.784;2024-01-30T03:16:51;14.25;;;5.60;;
59300;SDS011;45073;52.740;6.784;2024-01-30T03:19:17;13.80;;;6.55;;
59300;SDS011;45073;52.740;6.784;2024-01-30T03:21:43;13.88;;;6.10;;
59300;SDS011;45073;52.740;6.784;2024-01-30T03:24:09;12.10;;;5.65;;
59300;SDS011;45073;52.740;6.784;2024-01-30T03:26:35;18.50;;;7.05;;
59300;SDS011;45073;52.740;6.784;2024-01-30T03:29:00;20.77;;;6.90;;
59300;SDS011;45073;52.740;6.784;2024-01-30T03:31:26;13.70;;;6.60;;
59300;SDS011;45073;52.740;6.784;2024-01-30T03:33:52;14.98;;;7.13;;
59300;SDS011;45073;52.740;6.784;2024-01-30T03:36:17;15.40;;;7.00;;
59300;SDS011;45073;52.740;6.784;2024-01-30T03:38:43;13.07;;;6.20;;
59300;SDS011;45073;52.740;6.784;2024-01-30T03:41:09;13.05;;;6.60;;
59300;SDS011;45073;52.740;6.784;2024-01-30T03:43:35;14.60;;;7.13;;
59300;SDS011;45073;52.740;6.784;2024-01-30T03:46:01;14.98;;;6.97;;
59300;SDS011;45073;52.740;6.784;2024-01-30T03:48:28;14.68;;;6.30;;
59300;SDS011;45073;52.740;6.784;2024-01-30T03:50:54;13.10;;;6.13;;
59300;SDS011;45073;52.740;6.784;2024-01-30T03:53:20;14.95;;;7.15;;
59300;SDS011;45073;52.740;6.784;2024-01-30T03:55:46;12.65;;;6.38;;
59300;SDS011;45073;52.740;6.784;2024-01-30T03:58:11;15.07;;;6.85;;
59300;SDS011;45073;52.740;6.784;2024-01-30T04:00:37;12.70;;;6.93;;
59300;SDS011;45073;52.740;6.784;2024-01-30T04:03:03;13.90;;;7.10;;
59300;SDS011;45073;52.740;6.784;2024-01-30T04:05:29;13.38;;;6.13;;
59300;SDS011;45073;52.740;6.784;2024-01-30T04:07:54;14.23;;;6.13;;
59300;SDS011;45073;52.740;6.784;2024-01-30T04:10:20;13.40;;;7.45;;
59300;SDS011;45073;52.740;6.784;2024-01-30T04:12:46;12.38;;;6.70;;
59300;SDS011;45073;52.740;6.784;2024-01-30T04:15:11;14.85;;;7.97;;
59300;SDS011;45073;52.740;6.784;2024-01-30T04:17:38;14.35;;;7.22;;
59300;SDS011;45073;52.740;6.784;2024-01-30T04:20:05;15.90;;;7.50;;
59300;SDS011;45073;52.740;6.784;2024-01-30T04:22:31;15.30;;;7.72;;
59300;SDS011;45073;52.740;6.784;2024-01-30T04:24:56;13.70;;;6.60;;
59300;SDS011;45073;52.740;6.784;2024-01-30T04:27:22;14.30;;;6.90;;
59300;SDS011;45073;52.740;6.784;2024-01-30T04:29:48;13.75;;;6.22;;
59300;SDS011;45073;52.740;6.784;2024-01-30T04:32:13;15.50;;;5.95;;
59300;SDS011;45073;52.740;6.784;2024-01-30T04:34:39;13.85;;;6.22;;
59300;SDS011;45073;52.740;6.784;2024-01-30T04:37:05;12.88;;;6.80;;
59300;SDS011;45073;52.740;6.784;2024-01-30T04:39:32;14.82;;;6.57;;
59300;SDS011;45073;52.740;6.784;2024-01-30T04:41:58;15.35;;;6.80;;
59300;SDS011;45073;52.740;6.784;2024-01-30T04:44:24;16.88;;;7.32;;
59300;SDS011;45073;52.740;6.784;2024-01-30T04:46:50;13.68;;;6.97;;
59300;SDS011;45073;52.740;6.784;2024-01-30T04:49:16;13.98;;;7.05;;
59300;SDS011;45073;52.740;6.784;2024-01-30T04:51:41;19.17;;;7.43;;
59300;SDS011;45073;52.740;6.784;2024-01-30T04:54:07;14.55;;;7.40;;
59300;SDS011;45073;52.740;6.784;2024-01-30T04:56:33;13.00;;;7.15;;
59300;SDS011;45073;52.740;6.784;2024-01-30T04:58:59;14.57;;;7.78;;
59300;SDS011;45073;52.740;6.784;2024-01-30T05:01:25;15.30;;;7.05;;
59300;SDS011;45073;52.740;6.784;2024-01-30T05:03:51;15.20;;;8.48;;
59300;SDS011;45073;52.740;6.784;2024-01-30T05:06:26;16.30;;;7.55;;
59300;SDS011;45073;52.740;6.784;2024-01-30T05:08:52;13.20;;;6.72;;
59300;SDS011;45073;52.740;6.784;2024-01-30T05:11:18;13.82;;;7.00;;
59300;SDS011;45073;52.740;6.784;2024-01-30T05:13:44;14.25;;;6.32;;
59300;SDS011;45073;52.740;6.784;2024-01-30T05:16:09;13.52;;;5.97;;
59300;SDS011;45073;52.740;6.784;2024-01-30T05:18:35;14.07;;;6.72;;
59300;SDS011;45073;52.740;6.784;2024-01-30T05:21:01;15.18;;;7.20;;
59300;SDS011;45073;52.740;6.784;2024-01-30T05:23:27;14.55;;;7.45;;
59300;SDS011;45073;52.740;6.784;2024-01-30T05:25:53;12.50;;;6.78;;
59300;SDS011;45073;52.740;6.784;2024-01-30T05:28:19;15.88;;;8.93;;
59300;SDS011;45073;52.740;6.784;2024-01-30T05:30:44;13.48;;;7.47;;
59300;SDS011;45073;52.740;6.784;2024-01-30T05:33:10;17.63;;;8.38;;
59300;SDS011;45073;52.740;6.784;2024-01-30T05:35:37;14.75;;;7.40;;
59300;SDS011;45073;52.740;6.784;2024-01-30T05:38:03;13.02;;;7.70;;
59300;SDS011;45073;52.740;6.784;2024-01-30T05:40:29;16.05;;;8.13;;
59300;SDS011;45073;52.740;6.784;2024-01-30T05:42:55;14.00;;;6.72;;
59300;SDS011;45073;52.740;6.784;2024-01-30T05:45:21;14.88;;;8.02;;
59300;SDS011;45073;52.740;6.784;2024-01-30T05:47:48;12.77;;;6.75;;
59300;SDS011;45073;52.740;6.784;2024-01-30T05:50:14;14.30;;;7.57;;
59300;SDS011;45073;52.740;6.784;2024-01-30T05:52:40;14.65;;;7.28;;
59300;SDS011;45073;52.740;6.784;2024-01-30T05:55:05;13.07;;;6.60;;
59300;SDS011;45073;52.740;6.784;2024-01-30T05:57:31;15.32;;;6.95;;
59300;SDS011;45073;52.740;6.784;2024-01-30T05:59:57;12.25;;;6.15;;
59300;SDS011;45073;52.740;6.784;2024-01-30T06:02:23;13.63;;;6.35;;
59300;SDS011;45073;52.740;6.784;2024-01-30T06:04:48;15.20;;;7.35;;
59300;SDS011;45073;52.740;6.784;2024-01-30T06:07:14;14.48;;;7.20;;
59300;SDS011;45073;52.740;6.784;2024-01-30T06:09:40;15.20;;;8.15;;
59300;SDS011;45073;52.740;6.784;2024-01-30T06:12:06;14.60;;;6.75;;
59300;SDS011;45073;52.740;6.784;2024-01-30T06:14:32;15.85;;;7.45;;
59300;SDS011;45073;52.740;6.784;2024-01-30T06:16:58;15.68;;;7.13;;
59300;SDS011;45073;52.740;6.784;2024-01-30T06:19:24;13.20;;;7.20;;
59300;SDS011;45073;52.740;6.784;2024-01-30T06:21:50;15.88;;;7.20;;
59300;SDS011;45073;52.740;6.784;2024-01-30T06:24:15;14.82;;;5.88;;
59300;SDS011;45073;52.740;6.784;2024-01-30T06:26:42;13.45;;;7.50;;
59300;SDS011;45073;52.740;6.784;2024-01-30T06:29:08;13.13;;;6.88;;
59300;SDS011;45073;52.740;6.784;2024-01-30T06:31:39;21.73;;;7.65;;
59300;SDS011;45073;52.740;6.784;2024-01-30T06:34:08;10.32;;;5.70;;
59300;SDS011;45073;52.740;6.784;2024-01-30T06:36:34;14.10;;;7.20;;
59300;SDS011;45073;52.740;6.784;2024-01-30T06:39:01;14.98;;;6.57;;
59300;SDS011;45073;52.740;6.784;2024-01-30T06:41:27;13.07;;;7.07;;
59300;SDS011;45073;52.740;6.784;2024-01-30T06:43:53;14.20;;;6.95;;
59300;SDS011;45073;52.740;6.784;2024-01-30T06:46:19;11.82;;;6.35;;
59300;SDS011;45073;52.740;6.784;2024-01-30T06:48:45;13.35;;;6.50;;
59300;SDS011;45073;52.740;6.784;2024-01-30T06:51:11;13.35;;;6.22;;
59300;SDS011;45073;52.740;6.784;2024-01-30T06:53:37;10.63;;;5.95;;
59300;SDS011;45073;52.740;6.784;2024-01-30T06:56:03;16.40;;;6.75;;
59300;SDS011;45073;52.740;6.784;2024-01-30T06:58:29;12.88;;;7.38;;
59300;SDS011;45073;52.740;6.784;2024-01-30T07:00:54;14.10;;;7.25;;
59300;SDS011;45073;52.740;6.784;2024-01-30T07:03:20;12.32;;;5.95;;
59300;SDS011;45073;52.740;6.784;2024-01-30T07:05:46;15.30;;;7.30;;
59300;SDS011;45073;52.740;6.784;2024-01-30T07:08:12;14.32;;;6.88;;
59300;SDS011;45073;52.740;6.784;2024-01-30T07:10:38;13.15;;;6.50;;
59300;SDS011;45073;52.740;6.784;2024-01-30T07:13:03;11.32;;;6.68;;
59300;SDS011;45073;52.740;6.784;2024-01-30T07:15:30;13.75;;;6.50;;
59300;SDS011;45073;52.740;6.784;2024-01-30T07:17:56;13.35;;;5.30;;
59300;SDS011;45073;52.740;6.784;2024-01-30T07:20:22;14.15;;;6.50;;
59300;SDS011;45073;52.740;6.784;2024-01-30T07:22:47;16.17;;;7.13;;
59300;SDS011;45073;52.740;6.784;2024-01-30T07:25:13;16.95;;;7.50;;
59300;SDS011;45073;52.740;6.784;2024-01-30T07:27:39;12.75;;;6.82;;
59300;SDS011;45073;52.740;6.784;2024-01-30T07:30:06;14.45;;;6.90;;
59300;SDS011;45073;52.740;6.784;2024-01-30T07:32:32;12.25;;;6.88;;
59300;SDS011;45073;52.740;6.784;2024-01-30T07:34:57;16.10;;;6.40;;
59300;SDS011;45073;52.740;6.784;2024-01-30T07:37:23;14.95;;;6.70;;
59300;SDS011;45073;52.740;6.784;2024-01-30T07:39:49;13.27;;;6.22;;
59300;SDS011;45073;52.740;6.784;2024-01-30T07:42:15;13.02;;;7.00;;
59300;SDS011;45073;52.740;6.784;2024-01-30T07:44:41;13.85;;;6.93;;
59300;SDS011;45073;52.740;6.784;2024-01-30T07:47:06;13.68;;;6.25;;
59300;SDS011;45073;52.740;6.784;2024-01-30T07:49:32;11.63;;;5.78;;
59300;SDS011;45073;52.740;6.784;2024-01-30T07:51:58;14.20;;;6.70;;
59300;SDS011;45073;52.740;6.784;2024-01-30T07:54:27;10.32;;;5.45;;
59300;SDS011;45073;52.740;6.784;2024-01-30T07:56:53;14.90;;;6.30;;
59300;SDS011;45073;52.740;6.784;2024-01-30T07:59:18;12.18;;;5.07;;
59300;SDS011;45073;52.740;6.784;2024-01-30T08:01:46;13.57;;;6.53;;
59300;SDS011;45073;52.740;6.784;2024-01-30T08:04:12;11.00;;;5.10;;
59300;SDS011;45073;52.740;6.784;2024-01-30T08:06:38;11.85;;;6.38;;
59300;SDS011;45073;52.740;6.784;2024-01-30T08:09:03;11.43;;;6.32;;
59300;SDS011;45073;52.740;6.784;2024-01-30T08:11:32;14.25;;;5.75;;
59300;SDS011;45073;52.740;6.784;2024-01-30T08:13:58;13.07;;;5.13;;
59300;SDS011;45073;52.740;6.784;2024-01-30T08:16:24;11.52;;;4.97;;
59300;SDS011;45073;52.740;6.784;2024-01-30T08:18:49;11.73;;;5.95;;
59300;SDS011;45073;52.740;6.784;2024-01-30T08:21:15;9.23;;;4.53;;
59300;SDS011;45073;52.740;6.784;2024-01-30T08:23:42;11.05;;;4.88;;
59300;SDS011;45073;52.740;6.784;2024-01-30T08:26:07;14.32;;;6.18;;
59300;SDS011;45073;52.740;6.784;2024-01-30T08:28:33;12.68;;;5.93;;
59300;SDS011;45073;52.740;6.784;2024-01-30T08:30:59;9.43;;;4.32;;
59300;SDS011;45073;52.740;6.784;2024-01-30T08:33:24;14.65;;;5.72;;
59300;SDS011;45073;52.740;6.784;2024-01-30T08:35:50;12.27;;;6.30;;
59300;SDS011;45073;52.740;6.784;2024-01-30T08:38:16;13.27;;;6.28;;
59300;SDS011;45073;52.740;6.784;2024-01-30T08:40:41;12.63;;;6.25;;
59300;SDS011;45073;52.740;6.784;2024-01-30T08:43:07;9.77;;;4.93;;
59300;SDS011;45073;52.740;6.784;2024-01-30T08:45:35;13.93;;;6.82;;
59300;SDS011;45073;52.740;6.784;2024-01-30T08:48:00;10.02;;;4.65;;
59300;SDS011;45073;52.740;6.784;2024-01-30T08:50:26;12.80;;;5.78;;
59300;SDS011;45073;52.740;6.784;2024-01-30T08:52:52;14.85;;;6.30;;
59300;SDS011;45073;52.740;6.784;2024-01-30T08:55:17;14.02;;;7.05;;
59300;SDS011;45073;52.740;6.784;2024-01-30T08:57:43;12.07;;;5.50;;
59300;SDS011;45073;52.740;6.784;2024-01-30T09:00:09;13.20;;;4.95;;
59300;SDS011;45073;52.740;6.784;2024-01-30T09:02:36;10.60;;;5.47;;
59300;SDS011;45073;52.740;6.784;2024-01-30T09:05:02;9.40;;;4.80;;
59300;SDS011;45073;52.740;6.784;2024-01-30T09:07:27;13.32;;;5.43;;
59300;SDS011;45073;52.740;6.784;2024-01-30T09:09:53;11.23;;;5.20;;
59300;SDS011;45073;52.740;6.784;2024-01-30T09:12:19;13.10;;;6.43;;
59300;SDS011;45073;52.740;6.784;2024-01-30T09:14:44;13.50;;;5.68;;
59300;SDS011;45073;52.740;6.784;2024-01-30T09:17:10;12.88;;;5.82;;
59300;SDS011;45073;52.740;6.784;2024-01-30T09:19:36;10.80;;;4.22;;
59300;SDS011;45073;52.740;6.784;2024-01-30T09:22:01;11.77;;;4.93;;
59300;SDS011;45073;52.740;6.784;2024-01-30T09:24:28;8.32;;;3.67;;
59300;SDS011;45073;52.740;6.784;2024-01-30T09:26:53;13.25;;;5.55;;
59300;SDS011;45073;52.740;6.784;2024-01-30T09:29:19;7.85;;;4.63;;
59300;SDS011;45073;52.740;6.784;2024-01-30T09:31:45;11.90;;;5.05;;
59300;SDS011;45073;52.740;6.784;2024-01-30T09:34:11;14.00;;;6.00;;
59300;SDS011;45073;52.740;6.784;2024-01-30T09:36:37;12.73;;;5.63;;
59300;SDS011;45073;52.740;6.784;2024-01-30T09:39:02;13.02;;;5.88;;
59300;SDS011;45073;52.740;6.784;2024-01-30T09:41:29;14.00;;;6.47;;
59300;SDS011;45073;52.740;6.784;2024-01-30T09:43:57;13.18;;;6.03;;
59300;SDS011;45073;52.740;6.784;2024-01-30T09:46:25;12.77;;;5.28;;
59300;SDS011;45073;52.740;6.784;2024-01-30T09:48:53;12.10;;;5.97;;
59300;SDS011;45073;52.740;6.784;2024-01-30T09:51:20;10.82;;;5.97;;
59300;SDS011;45073;52.740;6.784;2024-01-30T09:53:47;11.38;;;5.80;;
59300;SDS011;45073;52.740;6.784;2024-01-30T09:56:14;12.18;;;5.90;;
59300;SDS011;45073;52.740;6.784;2024-01-30T09:58:39;12.35;;;6.13;;
59300;SDS011;45073;52.740;6.784;2024-01-30T10:01:05;12.63;;;5.90;;
59300;SDS011;45073;52.740;6.784;2024-01-30T10:03:31;10.02;;;4.70;;
59300;SDS011;45073;52.740;6.784;2024-01-30T10:05:57;13.02;;;5.25;;
59300;SDS011;45073;52.740;6.784;2024-01-30T10:08:25;11.02;;;5.45;;
59300;SDS011;45073;52.740;6.784;2024-01-30T10:10:51;12.40;;;6.15;;
59300;SDS011;45073;52.740;6.784;2024-01-30T10:13:17;12.88;;;4.85;;
59300;SDS011;45073;52.740;6.784;2024-01-30T10:15:44;13.68;;;5.13;;
59300;SDS011;45073;52.740;6.784;2024-01-30T10:18:10;10.60;;;5.40;;
59300;SDS011;45073;52.740;6.784;2024-01-30T10:20:36;9.90;;;4.82;;
59300;SDS011;45073;52.740;6.784;2024-01-30T10:23:02;14.68;;;5.68;;
59300;SDS011;45073;52.740;6.784;2024-01-30T10:25:31;12.43;;;5.88;;
59300;SDS011;45073;52.740;6.784;2024-01-30T10:27:57;10.98;;;5.10;;
59300;SDS011;45073;52.740;6.784;2024-01-30T10:30:23;13.07;;;5.82;;
59300;SDS011;45073;52.740;6.784;2024-01-30T10:32:50;12.45;;;5.63;;
59300;SDS011;45073;52.740;6.784;2024-01-30T10:35:16;12.25;;;4.90;;
59300;SDS011;45073;52.740;6.784;2024-01-30T10:37:48;10.63;;;4.85;;
59300;SDS011;45073;52.740;6.784;2024-01-30T10:40:15;12.20;;;5.50;;
59300;SDS011;45073;52.740;6.784;2024-01-30T10:42:42;11.65;;;5.53;;
59300;SDS011;45073;52.740;6.784;2024-01-30T10:45:09;14.60;;;6.18;;
59300;SDS011;45073;52.740;6.784;2024-01-30T10:47:52;11.20;;;4.75;;
59300;SDS011;45073;52.740;6.784;2024-01-30T10:50:19;13.95;;;6.13;;
59300;SDS011;45073;52.740;6.784;2024-01-30T10:52:45;10.68;;;5.13;;
59300;SDS011;45073;52.740;6.784;2024-01-30T10:55:12;11.35;;;5.63;;
59300;SDS011;45073;52.740;6.784;2024-01-30T10:57:39;12.75;;;6.00;;
59300;SDS011;45073;52.740;6.784;2024-01-30T11:00:06;12.10;;;5.35;;
59300;SDS011;45073;52.740;6.784;2024-01-30T11:02:41;18.70;;;5.63;;
59300;SDS011;45073;52.740;6.784;2024-01-30T11:05:08;12.80;;;5.97;;
59300;SDS011;45073;52.740;6.784;2024-01-30T11:07:34;12.10;;;6.05;;
59300;SDS011;45073;52.740;6.784;2024-01-30T11:10:03;15.18;;;6.93;;
59300;SDS011;45073;52.740;6.784;2024-01-30T11:12:32;15.05;;;5.97;;
59300;SDS011;45073;52.740;6.784;2024-01-30T11:15:02;13.73;;;5.72;;
59300;SDS011;45073;52.740;6.784;2024-01-30T11:17:39;13.10;;;5.97;;
59300;SDS011;45073;52.740;6.784;2024-01-30T11:20:05;13.45;;;6.50;;
59300;SDS011;45073;52.740;6.784;2024-01-30T11:22:34;15.65;;;5.75;;
59300;SDS011;45073;52.740;6.784;2024-01-30T11:25:01;13.95;;;5.05;;
59300;SDS011;45073;52.740;6.784;2024-01-30T11:27:28;11.25;;;4.43;;
59300;SDS011;45073;52.740;6.784;2024-01-30T11:30:01;12.82;;;6.15;;
59300;SDS011;45073;52.740;6.784;2024-01-30T11:32:27;11.98;;;5.53;;
59300;SDS011;45073;52.740;6.784;2024-01-30T11:34:53;12.38;;;5.93;;
59300;SDS011;45073;52.740;6.784;2024-01-30T11:37:20;11.55;;;5.10;;
59300;SDS011;45073;52.740;6.784;2024-01-30T11:39:50;15.05;;;5.85;;
59300;SDS011;45073;52.740;6.784;2024-01-30T11:42:16;13.50;;;6.45;;
59300;SDS011;45073;52.740;6.784;2024-01-30T11:44:46;9.55;;;3.97;;
59300;SDS011;45073;52.740;6.784;2024-01-30T11:47:12;11.55;;;5.25;;
59300;SDS011;45073;52.740;6.784;2024-01-30T11:49:39;10.27;;;4.25;;
59300;SDS011;45073;52.740;6.784;2024-01-30T11:52:05;12.27;;;5.35;;
59300;SDS011;45073;52.740;6.784;2024-01-30T11:54:30;11.93;;;5.28;;
59300;SDS011;45073;52.740;6.784;2024-01-30T11:56:56;11.38;;;4.22;;
59300;SDS011;45073;52.740;6.784;2024-01-30T11:59:22;10.18;;;5.32;;
59300;SDS011;45073;52.740;6.784;2024-01-30T12:01:47;9.30;;;4.25;;
59300;SDS011;45073;52.740;6.784;2024-01-30T12:04:14;9.75;;;3.72;;
59300;SDS011;45073;52.740;6.784;2024-01-30T12:06:40;11.63;;;4.80;;
59300;SDS011;45073;52.740;6.784;2024-01-30T12:09:06;10.27;;;5.43;;
59300;SDS011;45073;52.740;6.784;2024-01-30T12:11:44;12.32;;;6.10;;
59300;SDS011;45073;52.740;6.784;2024-01-30T12:14:11;10.73;;;5.20;;
59300;SDS011;45073;52.740;6.784;2024-01-30T12:16:37;11.13;;;4.55;;
59300;SDS011;45073;52.740;6.784;2024-01-30T12:19:03;12.57;;;4.75;;
59300;SDS011;45073;52.740;6.784;2024-01-30T12:21:29;15.95;;;6.38;;
59300;SDS011;45073;52.740;6.784;2024-01-30T12:23:55;10.20;;;5.25;;
59300;SDS011;45073;52.740;6.784;2024-01-30T12:26:22;11.55;;;5.65;;
59300;SDS011;45073;52.740;6.784;2024-01-30T12:28:48;13.55;;;5.88;;
59300;SDS011;45073;52.740;6.784;2024-01-30T12:31:17;12.88;;;5.72;;
59300;SDS011;45073;52.740;6.784;2024-01-30T12:33:42;12.18;;;5.80;;
59300;SDS011;45073;52.740;6.784;2024-01-30T12:36:08;12.25;;;5.15;;
59300;SDS011;45073;52.740;6.784;2024-01-30T12:38:34;11.27;;;5.30;;
59300;SDS011;45073;52.740;6.784;2024-01-30T12:40:59;14.15;;;10.35;;
59300;SDS011;45073;52.740;6.784;2024-01-30T12:43:25;12.15;;;5.95;;
59300;SDS011;45073;52.740;6.784;2024-01-30T12:45:52;15.60;;;4.65;;
59300;SDS011;45073;52.740;6.784;2024-01-30T12:48:18;10.23;;;5.03;;
59300;SDS011;45073;52.740;6.784;2024-01-30T12:50:43;13.93;;;5.63;;
59300;SDS011;45073;52.740;6.784;2024-01-30T12:53:09;13.40;;;5.65;;
59300;SDS011;45073;52.740;6.784;2024-01-30T12:55:35;10.02;;;4.25;;
59300;SDS011;45073;52.740;6.784;2024-01-30T12:58:01;10.25;;;4.32;;
59300;SDS011;45073;52.740;6.784;2024-01-30T13:00:26;12.65;;;5.25;;
59300;SDS011;45073;52.740;6.784;2024-01-30T13:02:52;8.48;;;4.80;;
59300;SDS011;45073;52.740;6.784;2024-01-30T13:05:18;9.55;;;3.75;;
59300;SDS011;45073;52.740;6.784;2024-01-30T13:07:44;11.98;;;5.25;;
59300;SDS011;45073;52.740;6.784;2024-01-30T13:10:10;8.18;;;3.58;;
59300;SDS011;45073;52.740;6.784;2024-01-30T13:12:35;5.90;;;3.05;;
59300;SDS011;45073;52.740;6.784;2024-01-30T13:15:02;10.55;;;3.55;;
59300;SDS011;45073;52.740;6.784;2024-01-30T13:17:29;9.55;;;3.88;;
59300;SDS011;45073;52.740;6.784;2024-01-30T13:19:55;10.88;;;2.90;;
59300;SDS011;45073;52.740;6.784;2024-01-30T13:22:21;8.23;;;3.03;;
59300;SDS011;45073;52.740;6.784;2024-01-30T13:24:47;5.22;;;2.47;;
59300;SDS011;45073;52.740;6.784;2024-01-30T13:27:13;6.45;;;2.53;;
59300;SDS011;45073;52.740;6.784;2024-01-30T13:29:39;6.10;;;2.13;;
59300;SDS011;45073;52.740;6.784;2024-01-30T13:32:04;10.70;;;2.78;;
59300;SDS011;45073;52.740;6.784;2024-01-30T13:34:30;6.63;;;2.15;;
59300;SDS011;45073;52.740;6.784;2024-01-30T13:36:56;6.25;;;2.10;;
59300;SDS011;45073;52.740;6.784;2024-01-30T13:39:22;6.03;;;2.05;;
59300;SDS011;45073;52.740;6.784;2024-01-30T13:41:48;10.60;;;3.80;;
59300;SDS011;45073;52.740;6.784;2024-01-30T13:44:15;4.53;;;1.73;;
59300;SDS011;45073;52.740;6.784;2024-01-30T13:46:42;3.90;;;1.88;;
59300;SDS011;45073;52.740;6.784;2024-01-30T13:49:08;3.92;;;1.65;;
59300;SDS011;45073;52.740;6.784;2024-01-30T13:51:34;4.32;;;1.30;;
59300;SDS011;45073;52.740;6.784;2024-01-30T13:53:59;3.13;;;1.40;;
59300;SDS011;45073;52.740;6.784;2024-01-30T13:56:25;3.35;;;1.42;;
59300;SDS011;45073;52.740;6.784;2024-01-30T13:58:51;5.45;;;1.88;;
59300;SDS011;45073;52.740;6.784;2024-01-30T14:01:18;7.43;;;2.28;;
59300;SDS011;45073;52.740;6.784;2024-01-30T14:03:44;4.45;;;1.75;;
59300;SDS011;45073;52.740;6.784;2024-01-30T14:06:10;3.83;;;1.55;;
59300;SDS011;45073;52.740;6.784;2024-01-30T14:08:36;5.57;;;1.70;;
59300;SDS011;45073;52.740;6.784;2024-01-30T14:11:01;3.72;;;1.67;;
59300;SDS011;45073;52.740;6.784;2024-01-30T14:13:27;3.38;;;1.35;;
59300;SDS011;45073;52.740;6.784;2024-01-30T14:15:53;3.33;;;1.48;;
59300;SDS011;45073;52.740;6.784;2024-01-30T14:18:19;3.80;;;1.52;;
59300;SDS011;45073;52.740;6.784;2024-01-30T14:20:45;5.95;;;1.67;;
59300;SDS011;45073;52.740;6.784;2024-01-30T14:23:11;4.47;;;1.73;;
59300;SDS011;45073;52.740;6.784;2024-01-30T14:25:36;6.30;;;1.92;;
59300;SDS011;45073;52.740;6.784;2024-01-30T14:28:02;2.92;;;1.30;;
59300;SDS011;45073;52.740;6.784;2024-01-30T14:30:28;3.35;;;1.30;;